createdAt,value
2023-02-22T00:08:48.432Z,29.75
2023-02-22T00:18:52.173Z,27.40
2023-02-22T00:28:54.745Z,25.85
2023-02-22T00:38:58.049Z,28.92
2023-02-22T00:48:59.959Z,29.63
2023-02-22T00:59:03.432Z,25.92
2023-02-22T01:09:05.413Z,26.83
2023-02-22T01:19:08.753Z,23.73
2023-02-22T01:29:13.696Z,30.13
2023-02-22T01:39:17.470Z,28.75
2023-02-22T01:49:19.549Z,27.88
2023-02-22T01:59:23.933Z,31.27
2023-02-22T02:09:30.812Z,26.73
2023-02-22T02:19:43.665Z,29.65
2023-02-22T02:30:20.413Z,34.00
2023-02-22T02:40:30.334Z,31.13
2023-02-22T02:50:36.718Z,29.03
2023-02-22T03:00:41.968Z,37.60
2023-02-22T03:10:52.007Z,35.22
2023-02-22T03:21:01.079Z,38.45
2023-02-22T03:31:07.753Z,35.15
2023-02-22T03:41:14.799Z,38.45
2023-02-22T03:51:17.656Z,37.95
2023-02-22T04:01:21.189Z,37.65
2023-02-22T04:11:23.509Z,41.55
2023-02-22T04:21:26.870Z,40.90
2023-02-22T04:31:28.912Z,45.67
2023-02-22T04:41:32.275Z,45.38
2023-02-22T04:51:34.248Z,47.88
2023-02-22T05:01:38.257Z,54.22
2023-02-22T05:11:40.390Z,51.08
2023-02-22T05:21:43.720Z,55.45
2023-02-22T05:31:45.755Z,49.38
2023-02-22T05:41:49.119Z,56.25
2023-02-22T05:51:51.134Z,53.40
2023-02-22T06:01:54.556Z,53.13
2023-02-22T06:11:56.495Z,47.65
2023-02-22T06:21:59.799Z,53.28
2023-02-22T06:32:01.881Z,43.00
2023-02-22T06:42:05.741Z,46.80
2023-02-22T06:52:09.074Z,47.50
2023-02-22T07:02:13.051Z,42.28
2023-02-22T07:12:15.162Z,37.47
2023-02-22T07:22:18.572Z,41.08
2023-02-22T07:32:20.565Z,41.90
2023-02-22T07:42:23.995Z,38.75
2023-02-22T07:52:25.967Z,38.65
2023-02-22T08:02:30.579Z,31.98
2023-02-22T08:12:32.737Z,31.70
2023-02-22T08:22:36.133Z,34.83
2023-02-22T08:32:38.295Z,28.92
2023-02-22T08:42:41.655Z,29.98
2023-02-22T08:52:43.631Z,25.58
2023-02-22T09:02:46.986Z,22.13
2023-02-22T09:12:48.945Z,18.92
2023-02-22T09:22:52.681Z,18.10
2023-02-22T09:32:58.078Z,13.60
2023-02-22T09:43:20.262Z,12.32
2023-02-22T09:53:26.487Z,11.52
2023-02-22T10:03:49.027Z,16.35
2023-02-22T10:14:01.196Z,10.00
2023-02-22T10:24:13.324Z,11.18
2023-02-22T10:34:17.345Z,14.35
2023-02-22T10:44:20.864Z,14.35
2023-02-22T10:54:28.670Z,21.27
2023-02-22T11:04:45.636Z,20.40
2023-02-22T11:14:48.312Z,17.33
2023-02-22T11:24:58.107Z,26.60
2023-02-22T11:35:30.919Z,18.87
2023-02-22T11:45:34.262Z,19.52
2023-02-22T11:55:43.662Z,16.98
2023-02-22T12:06:04.157Z,16.50
2023-02-22T12:16:16.822Z,17.10
2023-02-22T12:26:26.891Z,17.13
2023-02-22T12:36:35.984Z,12.30
2023-02-22T12:46:42.281Z,16.83
2023-02-22T13:19:01.020Z,17.92
2023-02-22T13:29:09.375Z,13.73
2023-02-22T13:39:39.182Z,11.52
2023-02-22T13:49:57.717Z,16.80
2023-02-22T14:00:38.753Z,14.70
2023-02-22T14:10:50.511Z,16.48
2023-02-22T14:21:06.965Z,16.65
2023-02-22T14:31:13.887Z,11.68
2023-02-22T14:41:23.893Z,11.55
2023-02-22T14:51:29.706Z,12.55
2023-02-22T15:12:12.998Z,16.30
2023-02-22T15:22:22.737Z,15.98
2023-02-22T15:32:31.862Z,16.15
2023-02-22T15:42:43.949Z,28.13
2023-02-22T15:52:53.146Z,16.33
2023-02-22T16:02:57.988Z,16.23
2023-02-22T16:13:14.468Z,17.13
2023-02-22T16:23:27.592Z,14.27
2023-02-22T16:33:29.603Z,15.80
2023-02-22T16:43:33.839Z,12.02
2023-02-22T16:53:37.554Z,12.85
2023-02-22T17:03:41.118Z,13.88
2023-02-22T17:13:43.547Z,16.42
2023-02-22T17:23:47.394Z,14.65
2023-02-22T17:33:49.612Z,14.55
2023-02-22T17:43:53.009Z,14.13
2023-02-22T17:53:55.132Z,15.95
2023-02-22T18:04:02.965Z,13.90
2023-02-22T18:14:27.292Z,12.38
2023-02-22T18:24:33.499Z,13.32
2023-02-22T18:34:35.447Z,11.90
2023-02-22T18:44:39.113Z,11.77
2023-02-22T18:54:41.876Z,13.90
2023-02-22T19:04:45.201Z,31.80
2023-02-22T19:14:47.174Z,21.77
2023-02-22T19:24:53.776Z,22.90
2023-02-22T19:35:12.217Z,24.48
2023-02-22T19:45:16.063Z,29.70
2023-02-22T20:40:17.786Z,17.73
2023-02-22T21:23:23.594Z,12.95
2023-02-22T21:33:25.569Z,14.85
2023-02-22T21:43:28.934Z,13.07
2023-02-22T21:54:09.670Z,12.43
2023-02-22T22:04:13.847Z,10.43
2023-02-22T22:14:17.171Z,12.65
2023-02-22T22:24:22.107Z,11.85
2023-02-22T22:34:29.354Z,12.90
2023-02-22T22:44:33.143Z,11.45
2023-02-22T22:54:35.220Z,15.98
2023-02-22T23:04:38.632Z,14.35
2023-02-22T23:14:42.538Z,11.45
2023-02-22T23:24:45.900Z,8.30
2023-02-22T23:34:47.914Z,9.95
2023-02-22T23:44:52.450Z,10.93
2023-02-22T23:54:54.746Z,16.58
